Stations météo

Publicité
Siracusa, Italie (16464): Température de l'air & dewpoint: 03.07.2020 15:00:00 - 09.07.2020 15:00:00 (CEST)Siracusa, Italie (16464): Vitesse du vent: 03.07.2020 15:00:00 - 09.07.2020 15:00:00 (CEST)Siracusa, Italie (16464): Direction du vent: 03.07.2020 15:00:00 - 09.07.2020 15:00:00 (CEST)Siracusa, Italie (16464): reduced air pressure: 03.07.2020 15:00:00 - 09.07.2020 15:00:00 (CEST)Siracusa, Italie (16464): Quantités de précipitations: 03.07.2020 15:00:00 - 09.07.2020 15:00:00 (CEST)
Date & Time tt [°C] td [°C] ff [km/h] ff [knt] dd ppp [hPa] rr [mm]
09.07.2020 15:00:00 28,9 21,9 22 12 SSW 1015,9 -
09.07.2020 14:00:00 27,8 22,7 15 8 WNW 1016,4 0,0
09.07.2020 13:00:00 28,2 20,9 13 7 WNW 1016,8 -
09.07.2020 12:00:00 26,9 21,8 13 7 WNW 1016,9 -
09.07.2020 11:00:00 26,6 21,5 11 6 WNW 1016,8 -
09.07.2020 10:00:00 26,8 20,6 8 4 WNW 1016,7 -
09.07.2020 09:00:00 25,8 20,1 5 3 SSW 1016,5 -
09.07.2020 08:00:00 23,9 19,1 2 1 SSW 1016,4 0,0
09.07.2020 07:00:00 21,0 16,5 4 2 SW 1016,3 -
09.07.2020 06:00:00 21,3 17,0 2 1 SW 1016,2 -
09.07.2020 05:00:00 21,8 17,1 0 0 N 1015,9 -
09.07.2020 04:00:00 21,5 16,8 4 2 SW 1015,9 -
09.07.2020 03:00:00 22,9 18,4 0 0 N 1015,9 -
09.07.2020 02:00:00 23,2 18,5 2 1 SW 1016,2 0,0
09.07.2020 01:00:00 23,6 18,8 2 1 SSW 1016,3 -
09.07.2020 00:00:00 24,4 20,0 4 2 SSW 1016,4 -
08.07.2020 23:00:00 25,0 20,8 8 4 SSW 1016,4 -
08.07.2020 22:00:00 25,4 21,2 16 9 SSW 1016,3 -
08.07.2020 21:00:00 25,5 21,3 16 9 W 1015,8 -
08.07.2020 20:00:00 25,9 21,1 21 11 SW 1015,7 0,0
08.07.2020 19:00:00 26,4 21,3 21 11 SSW 1015,5 -
08.07.2020 18:00:00 26,7 20,7 18 10 W 1015,6 -
08.07.2020 17:00:00 27,2 20,7 16 9 SW 1015,8 -
08.07.2020 16:00:00 27,2 19,7 18 10 SSW 1016,0 -
08.07.2020 15:00:00 27,6 20,9 16 9 WNW 1016,0 -
08.07.2020 14:00:00 27,4 19,7 16 9 WNW 1016,0 0,0
08.07.2020 13:00:00 27,6 20,4 15 8 W 1016,1 -
08.07.2020 12:00:00 27,2 20,5 9 5 WNW 1016,2 -
08.07.2020 11:00:00 27,5 20,8 5 3 W 1015,8 -
08.07.2020 10:00:00 26,7 20,2 8 4 SW 1015,5 -
08.07.2020 09:00:00 26,8 20,6 4 2 WSW 1015,2 -
08.07.2020 08:00:00 26,4 20,9 4 2 W 1014,7 0,0
08.07.2020 07:00:00 24,9 19,9 2 1 W 1014,2 -
08.07.2020 06:00:00 24,3 19,1 0 0 N 1013,6 -
08.07.2020 05:00:00 25,5 20,5 4 2 W 1013,2 -
08.07.2020 04:00:00 25,3 19,8 8 4 W 1013,0 -
08.07.2020 03:00:00 25,5 19,1 9 5 SSW 1012,6 -
08.07.2020 02:00:00 24,6 17,3 2 1 SSW 1012,7 0,0
08.07.2020 01:00:00 26,0 19,1 8 4 W 1012,4 -
08.07.2020 00:00:00 25,2 16,8 4 2 SW 1012,3 -
07.07.2020 23:00:00 26,6 18,1 2 1 SW 1012,0 -
07.07.2020 22:00:00 27,3 19,1 2 1 SSW 1011,6 -
07.07.2020 21:00:00 28,2 20,2 5 3 SW 1010,9 -
07.07.2020 20:00:00 29,2 18,6 4 2 SW 1010,4 0,0
07.07.2020 19:00:00 28,9 18,3 8 4 SSW 1010,2 -
07.07.2020 18:00:00 29,2 18,3 9 5 SSW 1009,8 -
07.07.2020 17:00:00 29,4 18,8 13 7 SSW 1009,5 -
07.07.2020 16:00:00 29,3 20,4 9 5 SSW 1009,6 -
07.07.2020 15:00:00 29,2 19,2 11 6 W 1009,6 -
07.07.2020 14:00:00 28,2 17,7 8 4 W 1009,5 0,0
07.07.2020 13:00:00 28,5 17,0 11 6 WNW 1009,4 -
07.07.2020 12:00:00 29,0 15,8 11 6 W 1009,1 -
07.07.2020 11:00:00 29,9 15,2 8 4 W 1008,6 -
07.07.2020 10:00:00 28,6 15,8 4 2 WSW 1008,0 -
07.07.2020 09:00:00 27,3 17,1 4 2 WSW 1008,1 -
07.07.2020 08:00:00 22,8 16,7 4 2 SSW 1007,9 0,0
07.07.2020 07:00:00 20,3 14,6 2 1 SSW 1007,6 -
07.07.2020 06:00:00 20,4 14,7 2 1 SSW 1007,1 -
07.07.2020 05:00:00 20,6 14,6 0 0 N 1006,7 -
07.07.2020 04:00:00 21,4 15,4 2 1 SSW 1006,8 -
07.07.2020 03:00:00 22,2 15,9 5 3 SW 1006,8 -
07.07.2020 02:00:00 22,6 16,1 4 2 SSW 1007,2 0,0
07.07.2020 01:00:00 23,1 16,6 4 2 SW 1007,5 -
07.07.2020 00:00:00 23,5 16,5 4 2 SSW 1007,8 -
06.07.2020 23:00:00 25,5 17,9 4 2 SSW 1007,9 -
06.07.2020 22:00:00 26,5 18,6 2 1 SSW 1007,7 -
06.07.2020 21:00:00 26,5 19,1 4 2 WNW 1007,0 -
06.07.2020 20:00:00 27,3 18,5 9 5 W 1006,9 0,0
06.07.2020 19:00:00 27,7 18,9 11 6 W 1006,8 -
06.07.2020 18:00:00 28,0 18,9 15 8 W 1006,6 -
06.07.2020 17:00:00 28,3 18,6 15 8 W 1006,9 -
06.07.2020 16:00:00 29,5 19,2 13 7 WNW 1007,1 -
06.07.2020 15:00:00 29,5 19,5 15 8 SSW 1007,7 -
06.07.2020 14:00:00 29,0 19,0 8 4 W 1007,8 0,0
06.07.2020 13:00:00 28,9 18,3 13 7 WNW 1008,2 -
06.07.2020 12:00:00 29,1 16,6 13 7 W 1008,4 -
06.07.2020 11:00:00 27,1 18,1 8 4 W 1008,7 -
06.07.2020 10:00:00 27,0 18,5 5 3 WNW 1008,6 -
06.07.2020 09:00:00 25,9 17,7 4 2 SSW 1008,6 -
06.07.2020 08:00:00 24,9 17,3 13 7 SW 1008,8 0,0
06.07.2020 07:00:00 22,1 17,0 2 1 SW 1008,6 -
06.07.2020 06:00:00 21,2 15,4 2 1 SSW 1008,6 -
06.07.2020 05:00:00 23,9 19,8 8 4 SW 1008,7 -
06.07.2020 04:00:00 24,2 19,4 15 8 WSW 1009,3 -
06.07.2020 03:00:00 24,6 18,7 8 4 SSW 1009,8 -
06.07.2020 02:00:00 24,6 18,7 13 7 SSW 1010,4 0,0
06.07.2020 01:00:00 24,1 17,5 4 2 SSW 1011,1 -
06.07.2020 00:00:00 25,1 18,9 2 1 SW 1011,2 -
05.07.2020 23:00:00 24,6 17,5 5 3 SSW 1011,0 -
05.07.2020 22:00:00 25,7 17,5 8 4 SW 1010,8 -
05.07.2020 21:00:00 25,8 17,9 5 3 W 1010,8 -
05.07.2020 20:00:00 26,1 18,2 9 5 W 1010,8 0,0
05.07.2020 19:00:00 26,4 18,2 8 4 W 1010,9 -
05.07.2020 18:00:00 27,0 18,5 9 5 W 1011,0 -
05.07.2020 17:00:00 27,0 17,7 9 5 W 1011,6 -
05.07.2020 16:00:00 27,6 16,5 8 4 W 1011,7 -
05.07.2020 15:00:00 27,8 16,7 9 5 W 1012,1 -
05.07.2020 14:00:00 26,9 18,9 9 5 SSW 1012,6 0,0
05.07.2020 13:00:00 26,8 18,6 4 2 W 1012,9 -
05.07.2020 12:00:00 26,3 19,1 9 5 W 1012,5 -
05.07.2020 11:00:00 26,4 18,7 13 7 W 1012,4 -
05.07.2020 10:00:00 26,1 19,2 15 8 W 1012,2 -
05.07.2020 09:00:00 26,2 18,0 11 6 SW 1012,3 -
05.07.2020 08:00:00 24,8 19,3 9 5 WNW 1012,3 0,0
05.07.2020 07:00:00 23,0 19,1 4 2 SW 1012,2 -
05.07.2020 06:00:00 22,7 19,0 4 2 SSW 1011,7 -
05.07.2020 05:00:00 22,3 18,0 5 3 SW 1011,7 -
05.07.2020 04:00:00 - - - - - - -
05.07.2020 03:00:00 23,4 18,9 11 6 WNW 1012,5 -
05.07.2020 02:00:00 24,7 19,5 13 7 WSW 1012,0 0,0
05.07.2020 01:00:00 25,3 18,9 22 12 W 1012,1 -
05.07.2020 00:00:00 26,2 18,8 15 8 WNW 1011,9 -
04.07.2020 23:00:00 25,8 17,9 18 10 WNW 1012,0 -
04.07.2020 22:00:00 26,0 17,3 16 9 WSW 1011,7 -
04.07.2020 21:00:00 25,2 19,3 24 13 SSW 1011,5 -
04.07.2020 20:00:00 27,0 22,1 15 8 SSW 1011,1 0,0
04.07.2020 19:00:00 27,8 19,3 15 8 SSW 1010,5 -
04.07.2020 18:00:00 29,1 19,9 26 14 WSW 1010,5 -
04.07.2020 17:00:00 29,2 21,4 21 11 W 1011,4 -
04.07.2020 16:00:00 29,7 20,8 22 12 W 1011,9 -
04.07.2020 15:00:00 30,1 20,6 13 7 WSW 1012,5 -
04.07.2020 14:00:00 28,6 20,8 9 5 W 1012,8 0,0
04.07.2020 13:00:00 29,0 20,7 11 6 W 1013,4 -
04.07.2020 12:00:00 29,2 21,4 9 5 W 1013,4 -
04.07.2020 11:00:00 27,9 21,6 15 8 WNW 1013,4 -
04.07.2020 10:00:00 27,6 21,8 16 9 WSW 1013,0 -
04.07.2020 09:00:00 26,9 21,1 24 13 WNW 1012,6 -
04.07.2020 08:00:00 26,1 21,0 22 12 SW 1012,2 0,0
04.07.2020 07:00:00 25,1 21,1 9 5 SW 1012,3 -
04.07.2020 06:00:00 24,7 21,0 5 3 W 1012,1 -
04.07.2020 05:00:00 25,1 20,7 11 6 SW 1011,5 -
04.07.2020 04:00:00 25,2 20,6 13 7 SW 1011,5 -
04.07.2020 03:00:00 25,3 21,7 8 4 W 1011,9 -
04.07.2020 02:00:00 25,5 21,9 8 4 WSW 1011,9 0,0
04.07.2020 01:00:00 25,8 21,6 15 8 SW 1011,8 -
04.07.2020 00:00:00 26,1 21,3 9 5 W 1012,1 -
03.07.2020 23:00:00 27,1 20,9 5 3 WSW 1012,0 -
03.07.2020 22:00:00 27,7 21,0 5 3 WNW 1011,6 -
03.07.2020 21:00:00 27,5 22,4 2 1 SW 1011,0 -
03.07.2020 20:00:00 28,5 22,9 5 3 SSW 1010,4 0,0
03.07.2020 19:00:00 28,8 21,8 5 3 S 1010,0 -
03.07.2020 18:00:00 29,3 21,2 8 4 S 1010,0 -
03.07.2020 17:00:00 29,1 20,5 9 5 S 1010,0 -
03.07.2020 16:00:00 30,1 20,3 9 5 SSW 1010,3 -
03.07.2020 15:00:00 29,7 19,4 11 6 S 1010,7 -

tt = Température de l'air
td = dewpoint
ff = Vitesse du vent
dd = Direction du vent
ppp = reduced air pressure
rr = Quantités de précipitations

stations d'obs. à proximité